Terminal Aerodrome Forecast
Issued by NWS Pittsburgh, PA

Current Version | Previous Version | Graphics & Text | Print | Product List | Glossary On
Versions: 1 2 3 4 5 6 7 8 9 10 11 12 13 14 15 16 17 18 19 20 21 22 23 24 25 26 27 28 29 30 31
000
FTUS41 KPBZ 010800 AAA
TAFPIT
TAF AMD
KPIT 010856Z 0109/0212 02007KT P6SM -DZ SCT007 OVC025
      TEMPO 0109/0110 5SM -RA BR BKN008 OVC025
     FM011600 35012G22KT P6SM VCSH BKN025=

USA.gov is the U.S. government's official web portal to all federal, state and local government web resources and services.